sensor_id;sensor_type;location;lat;lon;timestamp;pressure;altitude;pressure_sealevel;temperature
63220;BMP180;49320;52.512;13.448;2022-09-06T00:00:21;101834.00;;;23.60
63220;BMP180;49320;52.512;13.448;2022-09-06T00:02:48;101829.00;;;23.50
63220;BMP180;49320;52.512;13.448;2022-09-06T00:05:15;101831.00;;;23.50
63220;BMP180;49320;52.512;13.448;2022-09-06T00:07:42;101833.00;;;23.50
63220;BMP180;49320;52.512;13.448;2022-09-06T00:10:09;101834.00;;;23.50
63220;BMP180;49320;52.512;13.448;2022-09-06T00:12:37;101823.00;;;23.40
63220;BMP180;49320;52.512;13.448;2022-09-06T00:15:04;101837.00;;;23.40
63220;BMP180;49320;52.512;13.448;2022-09-06T00:17:33;101824.00;;;23.40
63220;BMP180;49320;52.512;13.448;2022-09-06T00:20:00;101838.00;;;23.40
63220;BMP180;49320;52.512;13.448;2022-09-06T00:22:27;101828.00;;;23.30
63220;BMP180;49320;52.512;13.448;2022-09-06T00:24:54;101828.00;;;23.30
63220;BMP180;49320;52.512;13.448;2022-09-06T00:27:21;101829.00;;;23.30
63220;BMP180;49320;52.512;13.448;2022-09-06T00:29:48;101830.00;;;23.20
63220;BMP180;49320;52.512;13.448;2022-09-06T00:32:15;101829.00;;;23.20
63220;BMP180;49320;52.512;13.448;2022-09-06T00:34:42;101826.00;;;23.20
63220;BMP180;49320;52.512;13.448;2022-09-06T00:37:09;101823.00;;;23.10
63220;BMP180;49320;52.512;13.448;2022-09-06T00:39:36;101823.00;;;23.10
63220;BMP180;49320;52.512;13.448;2022-09-06T00:42:10;101824.00;;;23.10
63220;BMP180;49320;52.512;13.448;2022-09-06T00:44:38;101816.00;;;23.00
63220;BMP180;49320;52.512;13.448;2022-09-06T00:47:07;101819.00;;;23.00
63220;BMP180;49320;52.512;13.448;2022-09-06T00:49:41;101821.00;;;22.90
63220;BMP180;49320;52.512;13.448;2022-09-06T00:52:13;101816.00;;;22.90
63220;BMP180;49320;52.512;13.448;2022-09-06T00:54:42;101819.00;;;22.90
63220;BMP180;49320;52.512;13.448;2022-09-06T00:57:09;101818.00;;;22.90
63220;BMP180;49320;52.512;13.448;2022-09-06T00:59:38;101825.00;;;22.80
63220;BMP180;49320;52.512;13.448;2022-09-06T01:02:07;101824.00;;;22.80
63220;BMP180;49320;52.512;13.448;2022-09-06T01:04:38;101824.00;;;22.70
63220;BMP180;49320;52.512;13.448;2022-09-06T01:13:16;101810.00;;;22.60
63220;BMP180;49320;52.512;13.448;2022-09-06T01:16:39;101816.00;;;22.60
63220;BMP180;49320;52.512;13.448;2022-09-06T01:19:43;101818.00;;;22.50
63220;BMP180;49320;52.512;13.448;2022-09-06T01:23:14;101819.00;;;22.50
63220;BMP180;49320;52.512;13.448;2022-09-06T01:26:17;101820.00;;;22.50
63220;BMP180;49320;52.512;13.448;2022-09-06T01:28:49;101805.00;;;22.50
63220;BMP180;49320;52.512;13.448;2022-09-06T01:31:43;101814.00;;;22.40
63220;BMP180;49320;52.512;13.448;2022-09-06T01:34:28;101814.00;;;22.40
63220;BMP180;49320;52.512;13.448;2022-09-06T01:37:13;101810.00;;;22.40
63220;BMP180;49320;52.512;13.448;2022-09-06T01:39:41;101814.00;;;22.40
63220;BMP180;49320;52.512;13.448;2022-09-06T01:42:19;101801.00;;;22.40
63220;BMP180;49320;52.512;13.448;2022-09-06T01:44:55;101804.00;;;22.40
63220;BMP180;49320;52.512;13.448;2022-09-06T01:51:03;101796.00;;;22.40
63220;BMP180;49320;52.512;13.448;2022-09-06T01:53:59;101813.00;;;22.40
63220;BMP180;49320;52.512;13.448;2022-09-06T02:00:11;101802.00;;;22.40
63220;BMP180;49320;52.512;13.448;2022-09-06T02:05:40;101802.00;;;22.40
63220;BMP180;49320;52.512;13.448;2022-09-06T02:08:15;101793.00;;;22.40
63220;BMP180;49320;52.512;13.448;2022-09-06T02:11:01;101791.00;;;22.30
63220;BMP180;49320;52.512;13.448;2022-09-06T02:13:44;101796.00;;;22.30
63220;BMP180;49320;52.512;13.448;2022-09-06T02:16:20;101796.00;;;22.30
63220;BMP180;49320;52.512;13.448;2022-09-06T02:19:09;101791.00;;;22.30
63220;BMP180;49320;52.512;13.448;2022-09-06T02:21:43;101789.00;;;22.30
63220;BMP180;49320;52.512;13.448;2022-09-06T02:24:18;101789.00;;;22.30
63220;BMP180;49320;52.512;13.448;2022-09-06T02:26:48;101783.00;;;22.30
63220;BMP180;49320;52.512;13.448;2022-09-06T02:29:16;101786.00;;;22.30
63220;BMP180;49320;52.512;13.448;2022-09-06T02:32:01;101791.00;;;22.20
63220;BMP180;49320;52.512;13.448;2022-09-06T02:34:29;101797.00;;;22.20
63220;BMP180;49320;52.512;13.448;2022-09-06T02:36:57;101787.00;;;22.10
63220;BMP180;49320;52.512;13.448;2022-09-06T02:39:23;101788.00;;;22.10
63220;BMP180;49320;52.512;13.448;2022-09-06T02:41:50;101784.00;;;22.00
63220;BMP180;49320;52.512;13.448;2022-09-06T02:44:17;101786.00;;;22.00
63220;BMP180;49320;52.512;13.448;2022-09-06T02:46:44;101793.00;;;22.00
63220;BMP180;49320;52.512;13.448;2022-09-06T02:49:11;101782.00;;;22.00
63220;BMP180;49320;52.512;13.448;2022-09-06T02:51:39;101792.00;;;22.00
63220;BMP180;49320;52.512;13.448;2022-09-06T02:54:06;101793.00;;;22.00
63220;BMP180;49320;52.512;13.448;2022-09-06T02:56:33;101803.00;;;22.00
63220;BMP180;49320;52.512;13.448;2022-09-06T02:59:03;101786.00;;;22.00
63220;BMP180;49320;52.512;13.448;2022-09-06T03:01:32;101788.00;;;22.00
63220;BMP180;49320;52.512;13.448;2022-09-06T03:03:59;101789.00;;;22.00
63220;BMP180;49320;52.512;13.448;2022-09-06T03:06:26;101787.00;;;22.00
63220;BMP180;49320;52.512;13.448;2022-09-06T03:08:53;101788.00;;;22.00
63220;BMP180;49320;52.512;13.448;2022-09-06T03:11:20;101789.00;;;22.00
63220;BMP180;49320;52.512;13.448;2022-09-06T03:13:47;101783.00;;;21.90
63220;BMP180;49320;52.512;13.448;2022-09-06T03:16:14;101788.00;;;21.90
63220;BMP180;49320;52.512;13.448;2022-09-06T03:18:41;101782.00;;;21.90
63220;BMP180;49320;52.512;13.448;2022-09-06T03:21:07;101778.00;;;21.90
63220;BMP180;49320;52.512;13.448;2022-09-06T03:23:34;101779.00;;;21.80
63220;BMP180;49320;52.512;13.448;2022-09-06T03:26:01;101779.00;;;21.80
63220;BMP180;49320;52.512;13.448;2022-09-06T03:28:28;101768.00;;;21.80
63220;BMP180;49320;52.512;13.448;2022-09-06T03:30:55;101770.00;;;21.70
63220;BMP180;49320;52.512;13.448;2022-09-06T03:33:22;101775.00;;;21.70
63220;BMP180;49320;52.512;13.448;2022-09-06T03:35:56;101772.00;;;21.70
63220;BMP180;49320;52.512;13.448;2022-09-06T03:38:25;101771.00;;;21.70
63220;BMP180;49320;52.512;13.448;2022-09-06T03:40:53;101763.00;;;21.70
63220;BMP180;49320;52.512;13.448;2022-09-06T03:43:22;101768.00;;;21.70
63220;BMP180;49320;52.512;13.448;2022-09-06T03:45:52;101765.00;;;21.70
63220;BMP180;49320;52.512;13.448;2022-09-06T03:48:21;101758.00;;;21.70
63220;BMP180;49320;52.512;13.448;2022-09-06T03:50:53;101766.00;;;21.70
63220;BMP180;49320;52.512;13.448;2022-09-06T03:53:22;101757.00;;;21.70
63220;BMP180;49320;52.512;13.448;2022-09-06T03:55:52;101765.00;;;21.70
63220;BMP180;49320;52.512;13.448;2022-09-06T03:58:21;101761.00;;;21.70
63220;BMP180;49320;52.512;13.448;2022-09-06T04:00:58;101777.00;;;21.70
63220;BMP180;49320;52.512;13.448;2022-09-06T04:03:25;101778.00;;;21.70
63220;BMP180;49320;52.512;13.448;2022-09-06T04:05:52;101779.00;;;21.70
63220;BMP180;49320;52.512;13.448;2022-09-06T04:08:19;101776.00;;;21.70
63220;BMP180;49320;52.512;13.448;2022-09-06T04:10:49;101772.00;;;21.70
63220;BMP180;49320;52.512;13.448;2022-09-06T04:13:18;101775.00;;;21.70
63220;BMP180;49320;52.512;13.448;2022-09-06T04:15:46;101772.00;;;21.70
63220;BMP180;49320;52.512;13.448;2022-09-06T04:18:14;101770.00;;;21.70
63220;BMP180;49320;52.512;13.448;2022-09-06T04:20:41;101766.00;;;21.60
63220;BMP180;49320;52.512;13.448;2022-09-06T04:23:08;101751.00;;;21.60
63220;BMP180;49320;52.512;13.448;2022-09-06T04:25:35;101765.00;;;21.60
63220;BMP180;49320;52.512;13.448;2022-09-06T04:28:02;101757.00;;;21.60
63220;BMP180;49320;52.512;13.448;2022-09-06T04:30:29;101750.00;;;21.60
63220;BMP180;49320;52.512;13.448;2022-09-06T04:32:56;101761.00;;;21.60
63220;BMP180;49320;52.512;13.448;2022-09-06T04:35:23;101760.00;;;21.50
63220;BMP180;49320;52.512;13.448;2022-09-06T04:37:50;101754.00;;;21.50
63220;BMP180;49320;52.512;13.448;2022-09-06T04:40:17;101763.00;;;21.50
63220;BMP180;49320;52.512;13.448;2022-09-06T04:42:44;101755.00;;;21.50
63220;BMP180;49320;52.512;13.448;2022-09-06T04:45:11;101747.00;;;21.50
63220;BMP180;49320;52.512;13.448;2022-09-06T04:47:38;101747.00;;;21.50
63220;BMP180;49320;52.512;13.448;2022-09-06T04:50:05;101759.00;;;21.50
63220;BMP180;49320;52.512;13.448;2022-09-06T04:52:32;101751.00;;;21.50
63220;BMP180;49320;52.512;13.448;2022-09-06T04:54:58;101750.00;;;21.50
63220;BMP180;49320;52.512;13.448;2022-09-06T04:57:25;101750.00;;;21.50
63220;BMP180;49320;52.512;13.448;2022-09-06T04:59:52;101745.00;;;21.50
63220;BMP180;49320;52.512;13.448;2022-09-06T05:02:19;101739.00;;;21.50
63220;BMP180;49320;52.512;13.448;2022-09-06T05:04:46;101743.00;;;21.50
63220;BMP180;49320;52.512;13.448;2022-09-06T05:07:13;101736.00;;;21.50
63220;BMP180;49320;52.512;13.448;2022-09-06T05:09:39;101740.00;;;21.50
63220;BMP180;49320;52.512;13.448;2022-09-06T05:12:06;101732.00;;;21.40
63220;BMP180;49320;52.512;13.448;2022-09-06T05:14:33;101744.00;;;21.50
63220;BMP180;49320;52.512;13.448;2022-09-06T05:17:00;101730.00;;;21.50
63220;BMP180;49320;52.512;13.448;2022-09-06T05:19:27;101728.00;;;21.50
63220;BMP180;49320;52.512;13.448;2022-09-06T05:21:54;101735.00;;;21.50
63220;BMP180;49320;52.512;13.448;2022-09-06T05:24:21;101728.00;;;21.50
63220;BMP180;49320;52.512;13.448;2022-09-06T05:26:48;101733.00;;;21.50
63220;BMP180;49320;52.512;13.448;2022-09-06T05:29:15;101736.00;;;21.50
63220;BMP180;49320;52.512;13.448;2022-09-06T05:31:41;101734.00;;;21.50
63220;BMP180;49320;52.512;13.448;2022-09-06T05:34:09;101736.00;;;21.60
63220;BMP180;49320;52.512;13.448;2022-09-06T05:36:36;101743.00;;;21.60
63220;BMP180;49320;52.512;13.448;2022-09-06T05:39:04;101742.00;;;21.60
63220;BMP180;49320;52.512;13.448;2022-09-06T05:41:31;101734.00;;;21.60
63220;BMP180;49320;52.512;13.448;2022-09-06T05:43:59;101726.00;;;21.70
63220;BMP180;49320;52.512;13.448;2022-09-06T05:46:26;101730.00;;;21.70
63220;BMP180;49320;52.512;13.448;2022-09-06T05:48:58;101726.00;;;21.80
63220;BMP180;49320;52.512;13.448;2022-09-06T05:51:30;101740.00;;;21.80
63220;BMP180;49320;52.512;13.448;2022-09-06T05:53:58;101745.00;;;21.90
63220;BMP180;49320;52.512;13.448;2022-09-06T05:56:25;101735.00;;;22.00
63220;BMP180;49320;52.512;13.448;2022-09-06T05:58:52;101737.00;;;22.00
63220;BMP180;49320;52.512;13.448;2022-09-06T06:01:24;101747.00;;;22.10
63220;BMP180;49320;52.512;13.448;2022-09-06T06:03:57;101745.00;;;22.10
63220;BMP180;49320;52.512;13.448;2022-09-06T06:06:29;101745.00;;;22.20
63220;BMP180;49320;52.512;13.448;2022-09-06T06:08:57;101742.00;;;22.20
63220;BMP180;49320;52.512;13.448;2022-09-06T06:11:26;101742.00;;;22.20
63220;BMP180;49320;52.512;13.448;2022-09-06T06:13:53;101742.00;;;22.20
63220;BMP180;49320;52.512;13.448;2022-09-06T06:16:21;101737.00;;;22.20
63220;BMP180;49320;52.512;13.448;2022-09-06T06:18:49;101735.00;;;22.30
63220;BMP180;49320;52.512;13.448;2022-09-06T06:21:21;101725.00;;;22.30
63220;BMP180;49320;52.512;13.448;2022-09-06T06:23:55;101711.00;;;22.30
63220;BMP180;49320;52.512;13.448;2022-09-06T06:26:22;101723.00;;;22.30
63220;BMP180;49320;52.512;13.448;2022-09-06T06:28:50;101712.00;;;22.30
63220;BMP180;49320;52.512;13.448;2022-09-06T06:31:17;101726.00;;;22.40
63220;BMP180;49320;52.512;13.448;2022-09-06T06:33:44;101722.00;;;22.40
63220;BMP180;49320;52.512;13.448;2022-09-06T06:38:43;101724.00;;;22.50
63220;BMP180;49320;52.512;13.448;2022-09-06T06:41:14;101724.00;;;22.60
63220;BMP180;49320;52.512;13.448;2022-09-06T06:43:41;101724.00;;;22.70
63220;BMP180;49320;52.512;13.448;2022-09-06T06:46:18;101711.00;;;22.70
63220;BMP180;49320;52.512;13.448;2022-09-06T06:48:46;101726.00;;;22.80
63220;BMP180;49320;52.512;13.448;2022-09-06T06:51:21;101729.00;;;22.80
63220;BMP180;49320;52.512;13.448;2022-09-06T06:53:48;101719.00;;;23.00
63220;BMP180;49320;52.512;13.448;2022-09-06T06:56:32;101721.00;;;23.00
63220;BMP180;49320;52.512;13.448;2022-09-06T06:59:03;101719.00;;;23.20
63220;BMP180;49320;52.512;13.448;2022-09-06T07:01:33;101721.00;;;23.20
63220;BMP180;49320;52.512;13.448;2022-09-06T07:04:00;101713.00;;;23.30
63220;BMP180;49320;52.512;13.448;2022-09-06T07:06:28;101713.00;;;23.30
63220;BMP180;49320;52.512;13.448;2022-09-06T07:09:18;101714.00;;;23.40
63220;BMP180;49320;52.512;13.448;2022-09-06T07:11:46;101707.00;;;23.40
63220;BMP180;49320;52.512;13.448;2022-09-06T07:14:16;101712.00;;;23.50
63220;BMP180;49320;52.512;13.448;2022-09-06T07:16:43;101698.00;;;23.60
63220;BMP180;49320;52.512;13.448;2022-09-06T07:19:10;101710.00;;;23.60
63220;BMP180;49320;52.512;13.448;2022-09-06T07:21:57;101715.00;;;23.70
63220;BMP180;49320;52.512;13.448;2022-09-06T07:24:30;101715.00;;;23.70
63220;BMP180;49320;52.512;13.448;2022-09-06T07:26:57;101721.00;;;23.80
63220;BMP180;49320;52.512;13.448;2022-09-06T07:29:44;101720.00;;;23.90
63220;BMP180;49320;52.512;13.448;2022-09-06T07:32:11;101724.00;;;24.00
63220;BMP180;49320;52.512;13.448;2022-09-06T07:34:38;101724.00;;;24.00
63220;BMP180;49320;52.512;13.448;2022-09-06T07:37:05;101728.00;;;24.10
63220;BMP180;49320;52.512;13.448;2022-09-06T07:39:32;101722.00;;;24.10
63220;BMP180;49320;52.512;13.448;2022-09-06T07:41:59;101729.00;;;24.10
63220;BMP180;49320;52.512;13.448;2022-09-06T07:44:26;101733.00;;;24.20
63220;BMP180;49320;52.512;13.448;2022-09-06T07:46:54;101742.00;;;24.20
63220;BMP180;49320;52.512;13.448;2022-09-06T07:49:41;101732.00;;;24.20
63220;BMP180;49320;52.512;13.448;2022-09-06T07:52:28;101726.00;;;24.30
63220;BMP180;49320;52.512;13.448;2022-09-06T07:55:15;101719.00;;;24.30
63220;BMP180;49320;52.512;13.448;2022-09-06T07:57:42;101711.00;;;24.30
63220;BMP180;49320;52.512;13.448;2022-09-06T08:00:10;101709.00;;;24.40
63220;BMP180;49320;52.512;13.448;2022-09-06T08:02:37;101711.00;;;24.40
63220;BMP180;49320;52.512;13.448;2022-09-06T08:05:06;101710.00;;;24.50
63220;BMP180;49320;52.512;13.448;2022-09-06T08:07:53;101716.00;;;24.50
63220;BMP180;49320;52.512;13.448;2022-09-06T08:10:40;101710.00;;;24.60
63220;BMP180;49320;52.512;13.448;2022-09-06T08:13:07;101716.00;;;24.60
63220;BMP180;49320;52.512;13.448;2022-09-06T08:15:34;101716.00;;;24.60
63220;BMP180;49320;52.512;13.448;2022-09-06T08:18:01;101711.00;;;24.70
63220;BMP180;49320;52.512;13.448;2022-09-06T08:20:28;101704.00;;;24.70
63220;BMP180;49320;52.512;13.448;2022-09-06T08:22:54;101713.00;;;24.80
63220;BMP180;49320;52.512;13.448;2022-09-06T08:25:21;101713.00;;;24.90
63220;BMP180;49320;52.512;13.448;2022-09-06T08:27:48;101717.00;;;24.90
63220;BMP180;49320;52.512;13.448;2022-09-06T08:30:15;101725.00;;;24.90
63220;BMP180;49320;52.512;13.448;2022-09-06T08:32:42;101717.00;;;25.00
63220;BMP180;49320;52.512;13.448;2022-09-06T08:35:08;101714.00;;;25.00
63220;BMP180;49320;52.512;13.448;2022-09-06T08:37:36;101720.00;;;25.10
63220;BMP180;49320;52.512;13.448;2022-09-06T08:40:03;101714.00;;;25.20
63220;BMP180;49320;52.512;13.448;2022-09-06T08:42:30;101717.00;;;25.20
63220;BMP180;49320;52.512;13.448;2022-09-06T08:44:57;101715.00;;;25.30
63220;BMP180;49320;52.512;13.448;2022-09-06T08:47:26;101705.00;;;25.40
63220;BMP180;49320;52.512;13.448;2022-09-06T08:50:06;101717.00;;;25.40
63220;BMP180;49320;52.512;13.448;2022-09-06T08:52:45;101714.00;;;25.50
63220;BMP180;49320;52.512;13.448;2022-09-06T08:55:44;101717.00;;;25.60
63220;BMP180;49320;52.512;13.448;2022-09-06T08:58:58;101710.00;;;25.60
63220;BMP180;49320;52.512;13.448;2022-09-06T09:01:43;101702.00;;;25.70
63220;BMP180;49320;52.512;13.448;2022-09-06T09:04:19;101701.00;;;25.70
63220;BMP180;49320;52.512;13.448;2022-09-06T09:06:58;101695.00;;;25.80
63220;BMP180;49320;52.512;13.448;2022-09-06T09:09:28;101699.00;;;25.80
63220;BMP180;49320;52.512;13.448;2022-09-06T09:11:59;101694.00;;;25.90
63220;BMP180;49320;52.512;13.448;2022-09-06T09:14:30;101688.00;;;25.90
63220;BMP180;49320;52.512;13.448;2022-09-06T09:17:24;101693.00;;;25.90
63220;BMP180;49320;52.512;13.448;2022-09-06T09:19:52;101683.00;;;25.90
63220;BMP180;49320;52.512;13.448;2022-09-06T09:22:19;101680.00;;;25.90
63220;BMP180;49320;52.512;13.448;2022-09-06T09:24:47;101687.00;;;26.00
63220;BMP180;49320;52.512;13.448;2022-09-06T09:27:26;101685.00;;;26.00
63220;BMP180;49320;52.512;13.448;2022-09-06T09:32:44;101679.00;;;26.20
63220;BMP180;49320;52.512;13.448;2022-09-06T09:35:33;101672.00;;;26.30
63220;BMP180;49320;52.512;13.448;2022-09-06T09:38:07;101673.00;;;26.40
63220;BMP180;49320;52.512;13.448;2022-09-06T09:40:56;101669.00;;;26.60
63220;BMP180;49320;52.512;13.448;2022-09-06T09:43:29;101662.00;;;26.70
63220;BMP180;49320;52.512;13.448;2022-09-06T09:49:27;101658.00;;;26.80
63220;BMP180;49320;52.512;13.448;2022-09-06T09:52:06;101638.00;;;26.80
63220;BMP180;49320;52.512;13.448;2022-09-06T09:54:38;101638.00;;;26.80
63220;BMP180;49320;52.512;13.448;2022-09-06T09:57:15;101640.00;;;26.90
63220;BMP180;49320;52.512;13.448;2022-09-06T10:00:01;101638.00;;;27.10
63220;BMP180;49320;52.512;13.448;2022-09-06T10:02:36;101639.00;;;27.20
63220;BMP180;49320;52.512;13.448;2022-09-06T10:07:54;101644.00;;;27.40
63220;BMP180;49320;52.512;13.448;2022-09-06T10:10:29;101627.00;;;27.50
63220;BMP180;49320;52.512;13.448;2022-09-06T10:15:41;101624.00;;;27.60
63220;BMP180;49320;52.512;13.448;2022-09-06T10:18:30;101631.00;;;27.70
63220;BMP180;49320;52.512;13.448;2022-09-06T10:24:05;101632.00;;;27.80
63220;BMP180;49320;52.512;13.448;2022-09-06T10:27:01;101620.00;;;27.80
63220;BMP180;49320;52.512;13.448;2022-09-06T10:29:45;101628.00;;;27.90
63220;BMP180;49320;52.512;13.448;2022-09-06T10:32:36;101628.00;;;28.00
63220;BMP180;49320;52.512;13.448;2022-09-06T10:35:13;101619.00;;;28.00
63220;BMP180;49320;52.512;13.448;2022-09-06T10:40:38;101617.00;;;28.20
63220;BMP180;49320;52.512;13.448;2022-09-06T10:43:16;101615.00;;;28.30
63220;BMP180;49320;52.512;13.448;2022-09-06T10:46:02;101621.00;;;28.30
63220;BMP180;49320;52.512;13.448;2022-09-06T10:48:40;101614.00;;;28.40
63220;BMP180;49320;52.512;13.448;2022-09-06T10:51:26;101616.00;;;28.50
63220;BMP180;49320;52.512;13.448;2022-09-06T10:54:06;101607.00;;;28.50
63220;BMP180;49320;52.512;13.448;2022-09-06T10:57:02;101604.00;;;28.70
63220;BMP180;49320;52.512;13.448;2022-09-06T10:59:39;101595.00;;;28.70
63220;BMP180;49320;52.512;13.448;2022-09-06T11:02:50;101588.00;;;28.80
63220;BMP180;49320;52.512;13.448;2022-09-06T11:05:47;101585.00;;;28.80
63220;BMP180;49320;52.512;13.448;2022-09-06T11:08:49;101595.00;;;28.90
63220;BMP180;49320;52.512;13.448;2022-09-06T11:11:34;101589.00;;;28.90
63220;BMP180;49320;52.512;13.448;2022-09-06T11:14:11;101596.00;;;28.90
63220;BMP180;49320;52.512;13.448;2022-09-06T11:16:49;101595.00;;;29.00
63220;BMP180;49320;52.512;13.448;2022-09-06T11:19:36;101589.00;;;29.00
63220;BMP180;49320;52.512;13.448;2022-09-06T11:27:56;101596.00;;;29.20
63220;BMP180;49320;52.512;13.448;2022-09-06T11:30:26;101585.00;;;29.20
63220;BMP180;49320;52.512;13.448;2022-09-06T11:35:42;101585.00;;;29.30
63220;BMP180;49320;52.512;13.448;2022-09-06T11:40:55;101580.00;;;29.30
63220;BMP180;49320;52.512;13.448;2022-09-06T11:43:50;101577.00;;;29.40
63220;BMP180;49320;52.512;13.448;2022-09-06T11:51:43;101572.00;;;29.30
63220;BMP180;49320;52.512;13.448;2022-09-06T11:57:01;101567.00;;;29.30
63220;BMP180;49320;52.512;13.448;2022-09-06T12:07:37;101562.00;;;29.30
63220;BMP180;49320;52.512;13.448;2022-09-06T12:12:57;101554.00;;;29.40
63220;BMP180;49320;52.512;13.448;2022-09-06T12:15:31;101558.00;;;29.40
63220;BMP180;49320;52.512;13.448;2022-09-06T12:18:08;101553.00;;;29.50
63220;BMP180;49320;52.512;13.448;2022-09-06T12:26:09;101555.00;;;29.60
63220;BMP180;49320;52.512;13.448;2022-09-06T12:28:48;101559.00;;;29.60
63220;BMP180;49320;52.512;13.448;2022-09-06T12:31:38;101558.00;;;29.60
63220;BMP180;49320;52.512;13.448;2022-09-06T12:34:16;101546.00;;;29.60
63220;BMP180;49320;52.512;13.448;2022-09-06T12:36:57;101546.00;;;29.60
63220;BMP180;49320;52.512;13.448;2022-09-06T12:39:25;101544.00;;;29.60
63220;BMP180;49320;52.512;13.448;2022-09-06T12:42:12;101538.00;;;29.70
63220;BMP180;49320;52.512;13.448;2022-09-06T12:44:47;101535.00;;;29.70
63220;BMP180;49320;52.512;13.448;2022-09-06T12:47:30;101536.00;;;29.70
63220;BMP180;49320;52.512;13.448;2022-09-06T12:50:20;101529.00;;;29.70
63220;BMP180;49320;52.512;13.448;2022-09-06T12:55:26;101530.00;;;29.70
63220;BMP180;49320;52.512;13.448;2022-09-06T12:58:03;101524.00;;;29.70
63220;BMP180;49320;52.512;13.448;2022-09-06T13:00:51;101522.00;;;29.80
63220;BMP180;49320;52.512;13.448;2022-09-06T13:03:34;101522.00;;;29.80
63220;BMP180;49320;52.512;13.448;2022-09-06T13:06:05;101526.00;;;29.80
63220;BMP180;49320;52.512;13.448;2022-09-06T13:11:10;101507.00;;;30.00
63220;BMP180;49320;52.512;13.448;2022-09-06T13:13:51;101508.00;;;30.00
63220;BMP180;49320;52.512;13.448;2022-09-06T13:16:30;101509.00;;;30.10
63220;BMP180;49320;52.512;13.448;2022-09-06T13:19:18;101506.00;;;30.10
63220;BMP180;49320;52.512;13.448;2022-09-06T13:21:53;101500.00;;;30.10
63220;BMP180;49320;52.512;13.448;2022-09-06T13:24:26;101501.00;;;30.20
63220;BMP180;49320;52.512;13.448;2022-09-06T13:29:59;101495.00;;;30.20
63220;BMP180;49320;52.512;13.448;2022-09-06T13:32:27;101501.00;;;30.30
63220;BMP180;49320;52.512;13.448;2022-09-06T13:34:59;101493.00;;;30.40
63220;BMP180;49320;52.512;13.448;2022-09-06T13:37:32;101483.00;;;30.50
63220;BMP180;49320;52.512;13.448;2022-09-06T13:40:42;101495.00;;;30.50
63220;BMP180;49320;52.512;13.448;2022-09-06T13:43:29;101482.00;;;30.50
63220;BMP180;49320;52.512;13.448;2022-09-06T13:46:07;101490.00;;;30.50
63220;BMP180;49320;52.512;13.448;2022-09-06T13:48:35;101487.00;;;30.60
63220;BMP180;49320;52.512;13.448;2022-09-06T13:51:05;101487.00;;;30.60
63220;BMP180;49320;52.512;13.448;2022-09-06T13:53:33;101486.00;;;30.60
63220;BMP180;49320;52.512;13.448;2022-09-06T13:56:00;101487.00;;;30.60
63220;BMP180;49320;52.512;13.448;2022-09-06T13:58:27;101482.00;;;30.60
63220;BMP180;49320;52.512;13.448;2022-09-06T14:00:57;101488.00;;;30.60
63220;BMP180;49320;52.512;13.448;2022-09-06T14:03:28;101494.00;;;30.60
63220;BMP180;49320;52.512;13.448;2022-09-06T14:05:57;101501.00;;;30.60
63220;BMP180;49320;52.512;13.448;2022-09-06T14:08:29;101490.00;;;30.60
63220;BMP180;49320;52.512;13.448;2022-09-06T14:11:19;101483.00;;;30.70
63220;BMP180;49320;52.512;13.448;2022-09-06T14:13:46;101487.00;;;30.70
63220;BMP180;49320;52.512;13.448;2022-09-06T14:16:13;101487.00;;;30.80
63220;BMP180;49320;52.512;13.448;2022-09-06T14:18:40;101489.00;;;30.80
63220;BMP180;49320;52.512;13.448;2022-09-06T14:21:07;101478.00;;;30.80
63220;BMP180;49320;52.512;13.448;2022-09-06T14:23:34;101482.00;;;30.70
63220;BMP180;49320;52.512;13.448;2022-09-06T14:26:03;101486.00;;;30.70
63220;BMP180;49320;52.512;13.448;2022-09-06T14:28:32;101480.00;;;30.70
63220;BMP180;49320;52.512;13.448;2022-09-06T14:31:15;101479.00;;;30.60
63220;BMP180;49320;52.512;13.448;2022-09-06T14:33:42;101472.00;;;30.60
63220;BMP180;49320;52.512;13.448;2022-09-06T14:36:14;101481.00;;;30.70
63220;BMP180;49320;52.512;13.448;2022-09-06T14:38:43;101486.00;;;30.70
63220;BMP180;49320;52.512;13.448;2022-09-06T14:41:11;101480.00;;;30.80
63220;BMP180;49320;52.512;13.448;2022-09-06T14:43:42;101481.00;;;30.90
63220;BMP180;49320;52.512;13.448;2022-09-06T14:46:15;101479.00;;;31.00
63220;BMP180;49320;52.512;13.448;2022-09-06T14:48:44;101478.00;;;31.10
63220;BMP180;49320;52.512;13.448;2022-09-06T14:51:19;101485.00;;;31.10
63220;BMP180;49320;52.512;13.448;2022-09-06T14:53:54;101483.00;;;31.20
63220;BMP180;49320;52.512;13.448;2022-09-06T14:56:22;101474.00;;;31.20
63220;BMP180;49320;52.512;13.448;2022-09-06T14:58:49;101468.00;;;31.20
63220;BMP180;49320;52.512;13.448;2022-09-06T15:01:18;101486.00;;;31.20
63220;BMP180;49320;52.512;13.448;2022-09-06T15:03:49;101479.00;;;31.20
63220;BMP180;49320;52.512;13.448;2022-09-06T15:06:20;101466.00;;;31.20
63220;BMP180;49320;52.512;13.448;2022-09-06T15:08:49;101465.00;;;31.10
63220;BMP180;49320;52.512;13.448;2022-09-06T15:11:36;101465.00;;;31.10
63220;BMP180;49320;52.512;13.448;2022-09-06T15:14:15;101454.00;;;31.10
63220;BMP180;49320;52.512;13.448;2022-09-06T15:16:45;101461.00;;;31.10
63220;BMP180;49320;52.512;13.448;2022-09-06T15:19:12;101449.00;;;31.00
63220;BMP180;49320;52.512;13.448;2022-09-06T15:21:40;101461.00;;;30.90
63220;BMP180;49320;52.512;13.448;2022-09-06T15:24:08;101463.00;;;30.80
63220;BMP180;49320;52.512;13.448;2022-09-06T15:26:39;101456.00;;;30.80
63220;BMP180;49320;52.512;13.448;2022-09-06T15:29:10;101451.00;;;30.70
63220;BMP180;49320;52.512;13.448;2022-09-06T15:31:38;101450.00;;;30.70
63220;BMP180;49320;52.512;13.448;2022-09-06T15:34:06;101451.00;;;30.70
63220;BMP180;49320;52.512;13.448;2022-09-06T15:36:35;101430.00;;;30.60